»·PEaware :: N122PT KLAX-KSAN

N122PT :: KLAX-KSAN

FLIGHT INFORMATION

Flight Status: Arrived
Operator: Privately registered:
United States
More flights under this callsign
Pilot: Ralph L. (1213)
Aircraft: Unknown
(LEG2)
More flights by this aircraft type
Origin: KLAX Los Angeles Intl
United States
Destination: KSAN San Diego Intl-Lindbergh
United States
More flights between these airports :: More routes between these airports
Route: DIRECT
File this flight plan on PilotEdge
Remarks: CAT 11
Altitude:
(Current/Filed)
5,500ft
Speed:
(Current/Filed)
230kts
Departed: 09-Oct-18 08:42 PM
Arrived: 09-Oct-18 09:18 PM
Distance/Time
Traveled:
95nm/0:36
Distance/Time
To Go:
Arrived

Flight Plot

Page will automatically refresh every two minutes.


Map Options




Map Legend


Flown Route
Filed Route
Departure Airport
Arrival Airport
Navaid (VOR, NDB)
Fix

Horizontal Profiles

Position Reports

Time Latitude Longitude Heading Altitude Ground
Speed
09-Oct-18 20:23 33.933516 -118.402184 18 129ft 0kts
09-Oct-18 20:24 33.933518 -118.402183 18 129ft 0kts
09-Oct-18 20:25 33.933519 -118.402182 18 129ft 0kts
09-Oct-18 20:26 33.933521 -118.402182 18 129ft 0kts
09-Oct-18 20:27 33.933523 -118.402181 18 129ft 0kts
09-Oct-18 20:28 33.933525 -118.402180 18 129ft 0kts
09-Oct-18 20:29 33.933527 -118.402179 18 129ft 0kts
09-Oct-18 20:30 33.933528 -118.402179 18 129ft 0kts
09-Oct-18 20:31 33.933530 -118.402178 18 129ft 0kts
09-Oct-18 20:32 33.933532 -118.402177 18 129ft 0kts
09-Oct-18 20:33 33.933534 -118.402177 18 129ft 0kts
09-Oct-18 20:37 33.933541 -118.402174 18 129ft 0kts
09-Oct-18 20:38 33.934229 -118.401248 84 129ft 19kts
09-Oct-18 20:39 33.934711 -118.396311 83 129ft 11kts
09-Oct-18 20:40 33.935020 -118.393312 82 129ft 7kts
09-Oct-18 20:41 33.935793 -118.385751 82 129ft 37kts
09-Oct-18 20:42 33.936393 -118.382805 5 129ft 0kts
09-Oct-18 20:43 33.936833 -118.382797 356 129ft 5kts
09-Oct-18 20:44 33.936161 -118.394989 263 130ft 118kts
09-Oct-18 20:45 33.933739 -118.439484 266 1489ft 131kts
09-Oct-18 20:46 33.926072 -118.480799 201 2957ft 144kts
09-Oct-18 20:47 33.875741 -118.492844 191 3047ft 214kts
09-Oct-18 20:48 33.813819 -118.508367 191 3334ft 220kts
09-Oct-18 20:49 33.761911 -118.519116 162 5255ft 169kts
09-Oct-18 20:50 33.724449 -118.475488 131 5505ft 209kts
09-Oct-18 20:51 33.683946 -118.421123 131 5588ft 226kts
09-Oct-18 20:52 33.641286 -118.363874 131 5601ft 232kts
09-Oct-18 20:53 33.597836 -118.305597 131 5610ft 235kts
09-Oct-18 20:54 33.554161 -118.247045 131 5610ft 236kts
09-Oct-18 20:55 33.510183 -118.188117 131 5610ft 236kts
09-Oct-18 20:56 33.466295 -118.129341 131 5610ft 237kts
09-Oct-18 20:57 33.422021 -118.070976 132 5610ft 237kts
09-Oct-18 20:58 33.377212 -118.013078 132 5610ft 237kts
09-Oct-18 20:59 33.332372 -117.955184 132 5610ft 237kts
09-Oct-18 21:00 33.287470 -117.897240 132 5610ft 237kts
09-Oct-18 21:01 33.242629 -117.839404 132 5610ft 237kts
09-Oct-18 21:02 33.197843 -117.781670 132 5610ft 237kts
09-Oct-18 21:03 33.152926 -117.723796 132 5610ft 237kts
09-Oct-18 21:04 33.108057 -117.666013 132 5610ft 237kts
09-Oct-18 21:05 33.063211 -117.608290 132 5530ft 239kts
09-Oct-18 21:06 33.020600 -117.553471 132 4507ft 214kts
09-Oct-18 21:07 32.981012 -117.502757 133 3504ft 203kts
09-Oct-18 21:08 32.943499 -117.455558 133 2497ft 190kts
09-Oct-18 21:09 32.907933 -117.410692 133 1715ft 174kts
09-Oct-18 21:10 32.877221 -117.371891 133 1679ft 151kts
09-Oct-18 21:11 32.849771 -117.337181 133 1666ft 138kts
09-Oct-18 21:12 32.824486 -117.305159 133 1655ft 127kts
09-Oct-18 21:13 32.799049 -117.272890 133 1688ft 142kts
09-Oct-18 21:14 32.773601 -117.240582 133 1660ft 125kts
09-Oct-18 21:15 32.759299 -117.205700 101 1640ft 117kts
09-Oct-18 21:16 32.752172 -117.168188 104 1633ft 113kts
09-Oct-18 21:17 32.743380 -117.132474 121 1700ft 113kts
09-Oct-18 21:18 32.724620 -117.141080 276 1234ft 113kts
09-Oct-18 21:19 32.730149 -117.175261 285 81ft 99kts
09-Oct-18 21:20 32.734153 -117.195002 237 18ft 27kts
09-Oct-18 21:21 32.733789 -117.195693 237 18ft 0kts
09-Oct-18 21:22 32.734968 -117.198656 340 18ft 19kts
09-Oct-18 21:23 32.737954 -117.194336 151 16ft 15kts
09-Oct-18 21:24 32.735278 -117.190729 27 18ft 16kts
09-Oct-18 21:25 32.733636 -117.184636 119 18ft 34kts
09-Oct-18 21:26 32.732484 -117.176886 97 18ft 12kts
09-Oct-18 21:27 32.732342 -117.176718 180 18ft 0kts
09-Oct-18 21:28 32.732341 -117.176718 180 18ft 0kts
09-Oct-18 21:29 32.732339 -117.176718 180 18ft 0kts

Navigation Log

Ident Type
1. KLAX Airport
2. KSAN Airport